Time;durP1;ratioP1;P1;durP2;ratioP2;P2;SDS_P1;SDS_P2;PMS_P1;PMS_P2;Temp;Humidity;BMP_temperature;BMP_pressure;BME280_temperature;BME280_humidity;BME280_pressure;Samples;Min_cycle;Max_cycle;Signal;HPM_P1;HPM_P2
2022/11/17 00:01:26;;;;;;;0.45;0.22;;;;;;;;;;4150853;28;20081;-40
2022/11/17 00:03:27;;;;;;;0.60;0.20;;;;;;;;;;4129832;28;20050;-40
2022/11/17 00:05:28;;;;;;;0.57;0.13;;;;;;;;;;4126854;28;20097;-40
2022/11/17 00:07:30;;;;;;;0.20;0.20;;;;;;;;;;4134965;28;20057;-40
2022/11/17 00:09:31;;;;;;;0.20;0.20;;;;;;;;;;4138350;28;20340;-40
2022/11/17 00:14:31;;;;;;;0.10;0.10;;;;;;;;;;4151691;28;20474;-40
2022/11/17 00:16:14;;;;;;;;;;;;;;;;;;4138019;28;20054;-40
2022/11/17 00:22:57;;;;;;;0.20;0.20;;;;;;;;;;4136972;28;20116;-40
2022/11/17 00:24:58;;;;;;;0.13;0.10;;;;;;;;;;4137312;28;20050;-40
2022/11/17 00:27:02;;;;;;;0.20;0.10;;;;;;;;;;4135998;28;20116;-40
2022/11/17 00:29:04;;;;;;;0.38;0.30;;;;;;;;;;4136481;28;20049;-40
2022/11/17 00:35:52;;;;;;;0.30;0.20;;;;;;;;;;4131218;28;20074;-40
2022/11/17 00:40:14;;;;;;;0.17;0.17;;;;;;;;;;4133755;28;20093;-40
2022/11/17 00:42:15;;;;;;;0.57;0.30;;;;;;;;;;4137866;28;20136;-40
2022/11/17 00:44:17;;;;;;;0.30;0.30;;;;;;;;;;4151737;28;20512;-39
2022/11/17 00:46:18;;;;;;;0.20;0.20;;;;;;;;;;4152877;28;20054;-39
2022/11/17 00:48:19;;;;;;;0.38;0.20;;;;;;;;;;4142512;28;20049;-39
2022/11/17 00:50:21;;;;;;;0.20;0.20;;;;;;;;;;4131121;28;20081;-39
2022/11/17 00:52:22;;;;;;;0.10;0.10;;;;;;;;;;4140568;28;20065;-39
2022/11/17 00:54:23;;;;;;;0.20;0.10;;;;;;;;;;4140204;28;20058;-39
2022/11/17 00:56:25;;;;;;;0.43;0.25;;;;;;;;;;4134674;28;20065;-39
2022/11/17 00:58:26;;;;;;;0.15;0.15;;;;;;;;;;4137079;28;20124;-39
2022/11/17 01:00:28;;;;;;;0.90;0.20;;;;;;;;;;4139812;28;20120;-39
2022/11/17 01:02:29;;;;;;;0.40;0.20;;;;;;;;;;4139169;28;20564;-39
2022/11/17 01:04:30;;;;;;;0.10;0.10;;;;;;;;;;4144949;28;20057;-39
2022/11/17 01:06:37;;;;;;;0.52;0.30;;;;;;;;;;4133516;28;20062;-39
2022/11/17 01:08:38;;;;;;;0.20;0.20;;;;;;;;;;4119905;28;20121;-39
2022/11/17 01:10:40;;;;;;;0.40;0.20;;;;;;;;;;4132290;28;20058;-39
2022/11/17 01:12:41;;;;;;;0.10;0.10;;;;;;;;;;4140884;28;20065;-39
2022/11/17 01:14:42;;;;;;;0.40;0.20;;;;;;;;;;4142794;28;20058;-39
2022/11/17 01:16:44;;;;;;;0.38;0.20;;;;;;;;;;4124622;28;20062;-39
2022/11/17 01:18:48;;;;;;;0.45;0.20;;;;;;;;;;4138616;28;20081;-39
2022/11/17 01:20:50;;;;;;;0.22;0.22;;;;;;;;;;4132892;28;20069;-38
2022/11/17 01:22:55;;;;;;;0.20;0.20;;;;;;;;;;4142732;28;20123;-39
2022/11/17 01:24:56;;;;;;;0.10;0.10;;;;;;;;;;4142621;28;20498;-39
2022/11/17 01:26:57;;;;;;;0.13;0.13;;;;;;;;;;4131694;28;20104;-39
2022/11/17 01:29:00;;;;;;;0.20;0.13;;;;;;;;;;4139538;28;20085;-39
2022/11/17 01:31:04;;;;;;;0.30;0.20;;;;;;;;;;4135295;28;20050;-39
2022/11/17 01:33:05;;;;;;;0.32;0.22;;;;;;;;;;4140939;28;20459;-39
2022/11/17 01:35:07;;;;;;;0.10;0.10;;;;;;;;;;4115105;28;20506;-39
2022/11/17 01:37:18;;;;;;;0.50;0.25;;;;;;;;;;4142360;28;20050;-40
2022/11/17 01:39:19;;;;;;;0.30;0.30;;;;;;;;;;4138042;28;20379;-39
2022/11/17 01:41:25;;;;;;;0.20;0.20;;;;;;;;;;4121743;28;20062;-40
2022/11/17 01:44:18;;;;;;;0.17;0.17;;;;;;;;;;4122332;28;20493;-39
2022/11/17 01:46:35;;;;;;;0.47;0.20;;;;;;;;;;4139250;28;20076;-39
2022/11/17 01:48:36;;;;;;;0.10;0.10;;;;;;;;;;4131513;28;20430;-40
2022/11/17 01:50:44;;;;;;;0.25;0.25;;;;;;;;;;4129830;28;20138;-39
2022/11/17 01:52:47;;;;;;;0.20;0.20;;;;;;;;;;4130326;28;20065;-39
2022/11/17 01:54:50;;;;;;;0.10;0.10;;;;;;;;;;4141717;28;20058;-39
2022/11/17 01:56:56;;;;;;;0.30;0.30;;;;;;;;;;4113475;28;20054;-39
2022/11/17 01:59:04;;;;;;;0.30;0.20;;;;;;;;;;4133829;28;20112;-39
2022/11/17 02:01:05;;;;;;;0.20;0.20;;;;;;;;;;4158067;28;20103;-39
2022/11/17 02:03:08;;;;;;;0.15;0.15;;;;;;;;;;4139821;28;20050;-40
2022/11/17 02:05:26;;;;;;;0.20;0.15;;;;;;;;;;4144090;28;20053;-39
2022/11/17 02:07:31;;;;;;;0.32;0.20;;;;;;;;;;4131362;28;20054;-39
2022/11/17 02:09:33;;;;;;;0.50;0.20;;;;;;;;;;4155609;28;20413;-39
2022/11/17 02:11:35;;;;;;;0.40;0.10;;;;;;;;;;4133048;28;20058;-39
2022/11/17 02:13:37;;;;;;;0.20;0.20;;;;;;;;;;4147194;28;20070;-39
2022/11/17 02:15:38;;;;;;;0.25;0.20;;;;;;;;;;4141476;28;20062;-39
2022/11/17 02:17:41;;;;;;;0.10;0.10;;;;;;;;;;4139653;28;20422;-39
2022/11/17 02:19:44;;;;;;;0.20;0.10;;;;;;;;;;4134947;28;20097;-39
2022/11/17 02:22:10;;;;;;;0.20;0.20;;;;;;;;;;4113492;28;20304;-39
2022/11/17 02:24:45;;;;;;;0.17;0.10;;;;;;;;;;4139699;28;20061;-39
2022/11/17 02:27:17;;;;;;;0.25;0.22;;;;;;;;;;4130819;28;20168;-39
2022/11/17 02:29:23;;;;;;;0.32;0.20;;;;;;;;;;4141000;28;20515;-39
2022/11/17 02:31:39;;;;;;;0.20;0.20;;;;;;;;;;4128554;28;20478;-39
2022/11/17 02:34:01;;;;;;;0.15;0.15;;;;;;;;;;4131136;28;20109;-39
2022/11/17 02:36:16;;;;;;;0.10;0.10;;;;;;;;;;4149452;28;20053;-40
2022/11/17 02:38:24;;;;;;;0.40;0.22;;;;;;;;;;4117925;28;20062;-39
2022/11/17 02:40:31;;;;;;;0.20;0.20;;;;;;;;;;4146981;28;20050;-39
2022/11/17 02:45:07;;;;;;;0.57;0.20;;;;;;;;;;4135808;28;20059;-39
2022/11/17 02:47:16;;;;;;;0.35;0.20;;;;;;;;;;4128949;28;20057;-40
2022/11/17 02:49:49;;;;;;;0.20;0.20;;;;;;;;;;4143369;28;20050;-39
2022/11/17 02:51:53;;;;;;;0.32;0.32;;;;;;;;;;4121377;28;20054;-39
2022/11/17 02:53:55;;;;;;;0.30;0.30;;;;;;;;;;4123066;28;20117;-39
2022/11/17 02:55:59;;;;;;;0.35;0.20;;;;;;;;;;4116582;28;20059;-39
2022/11/17 02:58:00;;;;;;;0.20;0.20;;;;;;;;;;4161839;28;20168;-39
2022/11/17 03:00:04;;;;;;;0.32;0.20;;;;;;;;;;4145561;28;20108;-39
2022/11/17 03:02:37;;;;;;;0.15;0.10;;;;;;;;;;4146322;28;20253;-39
2022/11/17 03:05:17;;;;;;;0.47;0.20;;;;;;;;;;4136549;28;20054;-39
2022/11/17 03:07:22;;;;;;;0.17;0.17;;;;;;;;;;4135144;28;20054;-39
2022/11/17 03:09:45;;;;;;;0.20;0.20;;;;;;;;;;4138837;28;20054;-39
2022/11/17 03:11:59;;;;;;;0.10;0.10;;;;;;;;;;4105537;28;20058;-39
2022/11/17 03:14:07;;;;;;;0.20;0.20;;;;;;;;;;4120232;28;20198;-39
2022/11/17 03:16:26;;;;;;;0.28;0.25;;;;;;;;;;4112839;28;20063;-39
2022/11/17 03:18:39;;;;;;;0.33;0.27;;;;;;;;;;4119855;28;20434;-39
2022/11/17 03:20:49;;;;;;;0.10;0.10;;;;;;;;;;4137622;28;20523;-39
2022/11/17 03:23:09;;;;;;;0.13;0.13;;;;;;;;;;4140060;28;20061;-39
2022/11/17 03:25:13;;;;;;;0.40;0.28;;;;;;;;;;4137124;28;20054;-39
2022/11/17 03:27:22;;;;;;;0.20;0.20;;;;;;;;;;4112894;28;20054;-39
2022/11/17 03:29:26;;;;;;;0.80;0.28;;;;;;;;;;4140534;28;20382;-39
2022/11/17 03:31:28;;;;;;;0.10;0.10;;;;;;;;;;4114048;28;20051;-39
2022/11/17 03:33:30;;;;;;;0.10;0.10;;;;;;;;;;4137453;28;20073;-39
2022/11/17 03:35:35;;;;;;;0.10;0.10;;;;;;;;;;4138392;28;20058;-40
2022/11/17 03:37:41;;;;;;;0.20;0.20;;;;;;;;;;4117877;28;20066;-39
2022/11/17 03:39:48;;;;;;;0.10;0.10;;;;;;;;;;4119906;28;20120;-39
2022/11/17 03:41:54;;;;;;;0.20;0.17;;;;;;;;;;4130008;28;20105;-39
2022/11/17 03:43:56;;;;;;;0.30;0.20;;;;;;;;;;4119439;28;20098;-39
2022/11/17 03:46:03;;;;;;;0.20;0.20;;;;;;;;;;4135731;28;20057;-39
2022/11/17 03:48:15;;;;;;;0.30;0.20;;;;;;;;;;4119743;28;20093;-39
2022/11/17 03:50:32;;;;;;;0.30;0.17;;;;;;;;;;4136880;28;20096;-40
2022/11/17 03:52:34;;;;;;;0.20;0.20;;;;;;;;;;4116672;28;20055;-39
2022/11/17 03:54:36;;;;;;;0.00;0.00;;;;;;;;;;4136971;28;20065;-39
2022/11/17 03:56:55;;;;;;;0.15;0.10;;;;;;;;;;4129417;28;20097;-39
2022/11/17 03:59:12;;;;;;;0.22;0.20;;;;;;;;;;4149429;28;20064;-39
2022/11/17 04:01:13;;;;;;;0.40;0.30;;;;;;;;;;4128922;28;20510;-39
2022/11/17 04:03:15;;;;;;;0.30;0.30;;;;;;;;;;4142048;28;20128;-39
2022/11/17 04:05:17;;;;;;;0.10;0.10;;;;;;;;;;4153622;28;20065;-39
2022/11/17 04:07:18;;;;;;;0.40;0.30;;;;;;;;;;4140026;28;20096;-40
2022/11/17 04:09:20;;;;;;;0.25;0.20;;;;;;;;;;4121077;28;20093;-39
2022/11/17 04:16:02;;;;;;;0.20;0.20;;;;;;;;;;4137757;28;20425;-40
2022/11/17 04:18:03;;;;;;;0.20;0.20;;;;;;;;;;4136799;28;20065;-39
2022/11/17 04:20:05;;;;;;;0.20;0.20;;;;;;;;;;4111987;28;20426;-39
2022/11/17 04:22:07;;;;;;;0.13;0.10;;;;;;;;;;4132023;28;20054;-39
2022/11/17 04:24:08;;;;;;;0.30;0.20;;;;;;;;;;4133960;28;20054;-39
2022/11/17 04:28:36;;;;;;;;;;;;;;;;;;4153106;28;20084;-39
2022/11/17 04:30:37;;;;;;;0.20;0.20;;;;;;;;;;4143148;28;19952;-39
2022/11/17 04:32:38;;;;;;;0.20;0.13;;;;;;;;;;4114864;28;20117;-39
2022/11/17 04:34:41;;;;;;;0.28;0.28;;;;;;;;;;4141983;28;20054;-40
2022/11/17 04:36:42;;;;;;;0.15;0.15;;;;;;;;;;4142294;28;20445;-39
2022/11/17 04:38:46;;;;;;;0.20;0.20;;;;;;;;;;4135871;28;20096;-39
2022/11/17 04:43:09;;;;;;;0.15;0.15;;;;;;;;;;4143558;28;20050;-39
2022/11/17 04:45:11;;;;;;;0.35;0.10;;;;;;;;;;4142313;28;20169;-39
2022/11/17 04:47:13;;;;;;;0.20;0.20;;;;;;;;;;4107713;28;20062;-39
2022/11/17 04:49:16;;;;;;;0.10;0.10;;;;;;;;;;4128458;28;20106;-39
2022/11/17 04:51:18;;;;;;;0.15;0.15;;;;;;;;;;4150769;28;20053;-39
2022/11/17 04:53:19;;;;;;;0.10;0.10;;;;;;;;;;4143471;28;20124;-39
2022/11/17 04:55:21;;;;;;;0.10;0.10;;;;;;;;;;4124763;28;20133;-39
2022/11/17 04:57:22;;;;;;;0.30;0.30;;;;;;;;;;4132777;28;20054;-39
2022/11/17 04:59:24;;;;;;;0.20;0.20;;;;;;;;;;4142725;28;20046;-39
2022/11/17 05:01:26;;;;;;;0.45;0.20;;;;;;;;;;4143009;28;20125;-40
2022/11/17 05:03:28;;;;;;;0.10;0.10;;;;;;;;;;4128939;28;20545;-39
2022/11/17 05:05:29;;;;;;;0.30;0.25;;;;;;;;;;4136656;28;20054;-39
2022/11/17 05:07:32;;;;;;;0.10;0.10;;;;;;;;;;4142149;28;20058;-39
2022/11/17 05:09:34;;;;;;;0.10;0.10;;;;;;;;;;4143188;28;20124;-39
2022/11/17 05:13:56;;;;;;;;;;;;;;;;;;4140941;28;20061;-39
2022/11/17 05:18:17;;;;;;;0.20;0.20;;;;;;;;;;4141918;28;20053;-39
2022/11/17 05:20:18;;;;;;;0.20;0.20;;;;;;;;;;4155401;28;20050;-39
2022/11/17 05:24:41;;;;;;;0.15;0.15;;;;;;;;;;4143399;28;20105;-39
2022/11/17 05:26:44;;;;;;;0.10;0.10;;;;;;;;;;4149412;28;20057;-39
2022/11/17 05:28:46;;;;;;;0.38;0.10;;;;;;;;;;4130371;28;20388;-39
2022/11/17 05:30:48;;;;;;;0.20;0.10;;;;;;;;;;4143370;28;20053;-39
2022/11/17 05:32:49;;;;;;;0.30;0.10;;;;;;;;;;4133672;28;20165;-39
2022/11/17 05:34:50;;;;;;;0.25;0.20;;;;;;;;;;4130631;28;20177;-39
2022/11/17 05:36:53;;;;;;;0.25;0.10;;;;;;;;;;4140126;28;20560;-39
2022/11/17 05:38:54;;;;;;;0.20;0.20;;;;;;;;;;4134755;28;20054;-39
2022/11/17 05:40:55;;;;;;;0.30;0.20;;;;;;;;;;4143072;28;20414;-40
2022/11/17 05:42:57;;;;;;;0.43;0.20;;;;;;;;;;4142272;28;20498;-39
2022/11/17 05:44:58;;;;;;;0.20;0.15;;;;;;;;;;4140402;28;20054;-39
2022/11/17 05:46:59;;;;;;;0.25;0.17;;;;;;;;;;4113492;28;20086;-39
2022/11/17 05:49:02;;;;;;;0.20;0.20;;;;;;;;;;4136800;28;20061;-39
2022/11/17 05:51:04;;;;;;;0.20;0.20;;;;;;;;;;4143316;28;20053;-39
2022/11/17 05:53:06;;;;;;;0.35;0.17;;;;;;;;;;4144652;28;20062;-39
2022/11/17 05:55:08;;;;;;;0.30;0.17;;;;;;;;;;4141602;28;20501;-39
2022/11/17 05:57:15;;;;;;;0.10;0.10;;;;;;;;;;4142878;28;20625;-38
2022/11/17 05:59:29;;;;;;;1.55;0.10;;;;;;;;;;4123748;28;20077;-39
2022/11/17 06:01:32;;;;;;;0.20;0.13;;;;;;;;;;4133250;28;20080;-40
2022/11/17 06:03:38;;;;;;;0.20;0.10;;;;;;;;;;4133694;28;20057;-39
2022/11/17 06:05:39;;;;;;;0.10;0.10;;;;;;;;;;4141043;28;20076;-39
2022/11/17 06:07:40;;;;;;;0.10;0.10;;;;;;;;;;4134555;28;20099;-40
2022/11/17 06:09:42;;;;;;;0.98;0.20;;;;;;;;;;4147055;28;20111;-40
2022/11/17 06:11:44;;;;;;;0.38;0.10;;;;;;;;;;4134976;28;20054;-39
2022/11/17 06:13:45;;;;;;;0.30;0.20;;;;;;;;;;4146155;28;20182;-39
2022/11/17 06:15:46;;;;;;;0.20;0.20;;;;;;;;;;4128775;28;20532;-40
2022/11/17 06:17:50;;;;;;;0.20;0.17;;;;;;;;;;4151822;28;20128;-39
2022/11/17 06:20:00;;;;;;;0.47;0.13;;;;;;;;;;4161625;28;20049;-39
2022/11/17 06:22:01;;;;;;;0.22;0.15;;;;;;;;;;4146445;28;20505;-39
2022/11/17 06:24:03;;;;;;;0.10;0.10;;;;;;;;;;4131369;28;20116;-39
2022/11/17 06:26:07;;;;;;;0.10;0.10;;;;;;;;;;4147284;28;20107;-39
2022/11/17 06:28:12;;;;;;;0.20;0.10;;;;;;;;;;4145970;28;20058;-40
2022/11/17 06:30:13;;;;;;;0.30;0.20;;;;;;;;;;4136650;28;20061;-40
2022/11/17 06:32:16;;;;;;;0.75;0.17;;;;;;;;;;4141688;28;20061;-39
2022/11/17 06:34:18;;;;;;;0.30;0.10;;;;;;;;;;4137495;28;20057;-40
2022/11/17 06:36:19;;;;;;;0.43;0.10;;;;;;;;;;4140304;28;20054;-40
2022/11/17 06:38:21;;;;;;;0.28;0.10;;;;;;;;;;4141714;28;20076;-40
2022/11/17 06:40:22;;;;;;;0.32;0.20;;;;;;;;;;4127036;28;20046;-40
2022/11/17 06:44:43;;;;;;;0.45;0.10;;;;;;;;;;4124347;28;20445;-39
2022/11/17 06:46:45;;;;;;;0.10;0.10;;;;;;;;;;4140478;28;20058;-40
2022/11/17 06:48:46;;;;;;;0.20;0.10;;;;;;;;;;4137425;28;20197;-39
2022/11/17 06:50:47;;;;;;;0.00;0.00;;;;;;;;;;4127223;28;20046;-39
2022/11/17 06:52:49;;;;;;;0.95;0.20;;;;;;;;;;4141968;28;20053;-40
2022/11/17 06:54:51;;;;;;;0.10;0.10;;;;;;;;;;4121953;28;20058;-39
2022/11/17 06:56:54;;;;;;;0.20;0.13;;;;;;;;;;4141636;28;20076;-39
2022/11/17 06:58:55;;;;;;;0.20;0.10;;;;;;;;;;4124370;28;20054;-40
2022/11/17 07:01:05;;;;;;;0.10;0.10;;;;;;;;;;4137538;28;20342;-40
2022/11/17 07:03:09;;;;;;;0.45;0.20;;;;;;;;;;4110625;28;20754;-40
2022/11/17 07:05:10;;;;;;;1.10;0.17;;;;;;;;;;4136892;28;20362;-40
2022/11/17 07:07:11;;;;;;;0.10;0.10;;;;;;;;;;4117951;28;20050;-39
2022/11/17 07:09:13;;;;;;;0.20;0.10;;;;;;;;;;4120551;28;20687;-40
2022/11/17 07:11:18;;;;;;;0.17;0.10;;;;;;;;;;4113235;28;20066;-40
2022/11/17 07:13:21;;;;;;;0.10;0.10;;;;;;;;;;4107346;28;20058;-39
2022/11/17 07:15:23;;;;;;;0.10;0.10;;;;;;;;;;4111080;28;20066;-39
2022/11/17 07:17:24;;;;;;;0.85;0.20;;;;;;;;;;4129027;28;20058;-40
2022/11/17 07:19:25;;;;;;;1.55;0.10;;;;;;;;;;4106858;28;20055;-40
2022/11/17 07:21:26;;;;;;;0.20;0.10;;;;;;;;;;4089088;28;20058;-39
2022/11/17 07:23:28;;;;;;;0.17;0.10;;;;;;;;;;4107680;28;20073;-41
2022/11/17 07:25:30;;;;;;;0.45;0.10;;;;;;;;;;4111346;28;20176;-41
2022/11/17 07:27:31;;;;;;;0.10;0.10;;;;;;;;;;4085847;28;20120;-40
2022/11/17 07:29:32;;;;;;;0.10;0.10;;;;;;;;;;4100929;28;20339;-41
2022/11/17 07:31:35;;;;;;;0.68;0.03;;;;;;;;;;4102001;28;20058;-42
2022/11/17 07:33:37;;;;;;;0.20;0.10;;;;;;;;;;4108124;28;20152;-42
2022/11/17 07:35:38;;;;;;;1.92;0.10;;;;;;;;;;4102050;28;20793;-43
2022/11/17 07:37:39;;;;;;;0.00;0.00;;;;;;;;;;4104400;28;20062;-42
2022/11/17 07:39:41;;;;;;;0.43;0.22;;;;;;;;;;4080178;28;20059;-42
2022/11/17 07:41:43;;;;;;;0.10;0.10;;;;;;;;;;4100134;28;20213;-41
2022/11/17 07:43:45;;;;;;;0.10;0.10;;;;;;;;;;4103574;28;20062;-42
2022/11/17 07:45:46;;;;;;;0.60;0.20;;;;;;;;;;4105984;28;20486;-41
2022/11/17 07:47:55;;;;;;;0.13;0.10;;;;;;;;;;4108568;28;20059;-44
2022/11/17 07:49:56;;;;;;;0.45;0.30;;;;;;;;;;4108226;28;20054;-41
2022/11/17 07:51:57;;;;;;;0.43;0.10;;;;;;;;;;4102802;28;20186;-43
2022/11/17 07:53:59;;;;;;;0.63;0.13;;;;;;;;;;4094886;28;20080;-42
2022/11/17 07:56:05;;;;;;;0.10;0.10;;;;;;;;;;4087672;28;20066;-42
2022/11/17 07:58:07;;;;;;;0.30;0.10;;;;;;;;;;4103420;28;20063;-42
2022/11/17 08:00:09;;;;;;;0.30;0.30;;;;;;;;;;4081603;28;20101;-42
2022/11/17 08:02:13;;;;;;;0.32;0.10;;;;;;;;;;4075739;28;20197;-41
2022/11/17 08:04:15;;;;;;;0.93;0.20;;;;;;;;;;4081913;28;22474;-39
2022/11/17 08:06:16;;;;;;;0.22;0.17;;;;;;;;;;4090580;28;20062;-44
2022/11/17 08:08:18;;;;;;;0.08;0.08;;;;;;;;;;4092010;28;20367;-42
2022/11/17 08:10:20;;;;;;;0.30;0.10;;;;;;;;;;4093822;28;20958;-42
2022/11/17 08:12:22;;;;;;;2.08;0.20;;;;;;;;;;4115955;28;20100;-42
2022/11/17 08:14:24;;;;;;;1.85;0.20;;;;;;;;;;4108855;28;20054;-41
2022/11/17 08:16:29;;;;;;;0.88;0.10;;;;;;;;;;4103089;28;20101;-42
2022/11/17 08:18:31;;;;;;;0.38;0.13;;;;;;;;;;4115114;28;20164;-44
2022/11/17 08:20:32;;;;;;;0.57;0.10;;;;;;;;;;4115416;28;20050;-43
2022/11/17 08:22:34;;;;;;;0.88;0.20;;;;;;;;;;4114520;28;20412;-41
2022/11/17 08:24:35;;;;;;;0.10;0.10;;;;;;;;;;4108063;28;20152;-41
2022/11/17 08:26:36;;;;;;;0.40;0.20;;;;;;;;;;4105692;28;20053;-43
2022/11/17 08:28:38;;;;;;;0.90;0.20;;;;;;;;;;4113230;28;20120;-42
2022/11/17 08:30:40;;;;;;;0.50;0.20;;;;;;;;;;4109512;28;20121;-42
2022/11/17 08:32:48;;;;;;;1.88;0.10;;;;;;;;;;4125374;28;20717;-44
2022/11/17 08:34:50;;;;;;;0.32;0.20;;;;;;;;;;4123497;28;20103;-41
2022/11/17 08:36:51;;;;;;;0.03;0.03;;;;;;;;;;4125887;28;20600;-42
2022/11/17 08:38:53;;;;;;;1.45;0.32;;;;;;;;;;4102335;28;20089;-40
2022/11/17 08:40:55;;;;;;;0.13;0.10;;;;;;;;;;4110545;28;20061;-40
2022/11/17 08:42:57;;;;;;;0.10;0.10;;;;;;;;;;4085835;28;20101;-43
2022/11/17 08:44:59;;;;;;;0.25;0.20;;;;;;;;;;4085391;28;20058;-40
2022/11/17 08:47:01;;;;;;;0.20;0.08;;;;;;;;;;4113053;28;20815;-41
2022/11/17 08:49:02;;;;;;;0.35;0.15;;;;;;;;;;4110404;28;20053;-41
2022/11/17 08:51:05;;;;;;;0.43;0.10;;;;;;;;;;4091231;28;20332;-42
2022/11/17 08:53:12;;;;;;;0.40;0.20;;;;;;;;;;4104366;28;20648;-43
2022/11/17 08:55:14;;;;;;;0.20;0.10;;;;;;;;;;4105777;28;21627;-40
2022/11/17 08:57:15;;;;;;;2.05;0.17;;;;;;;;;;4097747;28;20057;-42
2022/11/17 08:59:17;;;;;;;0.93;0.10;;;;;;;;;;4095374;28;20093;-41
2022/11/17 09:01:18;;;;;;;0.17;0.17;;;;;;;;;;4057346;28;20113;-43
2022/11/17 09:03:19;;;;;;;2.05;0.73;;;;;;;;;;4097283;28;20062;-41
2022/11/17 09:05:22;;;;;;;1.80;0.15;;;;;;;;;;4087887;28;20065;-41
2022/11/17 09:07:23;;;;;;;1.20;0.20;;;;;;;;;;4098886;28;21123;-41
2022/11/17 09:09:25;;;;;;;0.10;0.10;;;;;;;;;;4114828;28;22489;-38
2022/11/17 09:11:26;;;;;;;1.65;0.20;;;;;;;;;;4099562;28;22845;-39
2022/11/17 09:13:29;;;;;;;2.08;0.10;;;;;;;;;;4118195;28;20437;-41
2022/11/17 09:15:32;;;;;;;2.17;0.10;;;;;;;;;;4096979;28;20473;-41
2022/11/17 09:17:33;;;;;;;0.65;0.30;;;;;;;;;;4096132;28;20603;-40
2022/11/17 09:19:34;;;;;;;0.28;0.10;;;;;;;;;;4099712;28;20527;-41
2022/11/17 09:21:36;;;;;;;0.32;0.20;;;;;;;;;;4098477;28;20147;-41
2022/11/17 09:23:37;;;;;;;0.52;0.20;;;;;;;;;;4101460;28;20058;-40
2022/11/17 09:25:39;;;;;;;1.40;0.17;;;;;;;;;;4083448;28;20510;-41
2022/11/17 09:27:40;;;;;;;0.60;0.20;;;;;;;;;;4100029;28;20062;-40
2022/11/17 09:29:41;;;;;;;0.35;0.08;;;;;;;;;;4095902;28;20156;-40
2022/11/17 09:31:43;;;;;;;0.35;0.10;;;;;;;;;;4081716;28;20857;-41
2022/11/17 09:33:44;;;;;;;1.75;0.20;;;;;;;;;;4108550;28;20057;-40
2022/11/17 09:35:46;;;;;;;1.55;0.20;;;;;;;;;;4104903;28;20062;-40
2022/11/17 09:37:47;;;;;;;0.60;0.10;;;;;;;;;;4104355;28;20057;-41
2022/11/17 09:39:49;;;;;;;0.10;0.10;;;;;;;;;;4107601;28;20050;-39
2022/11/17 09:41:52;;;;;;;0.20;0.20;;;;;;;;;;4115284;28;20065;-39
2022/11/17 09:43:56;;;;;;;0.55;0.20;;;;;;;;;;4108006;28;20749;-43
2022/11/17 09:46:42;;;;;;;0.77;0.30;;;;;;;;;;4091854;28;20732;-40
2022/11/17 09:48:48;;;;;;;1.70;0.10;;;;;;;;;;4081793;28;20067;-42
2022/11/17 09:50:54;;;;;;;0.15;0.15;;;;;;;;;;4106054;28;20053;-41
2022/11/17 09:53:17;;;;;;;3.13;0.40;;;;;;;;;;4100911;28;20065;-39
2022/11/17 09:55:33;;;;;;;1.80;0.20;;;;;;;;;;4100405;28;21950;-38
2022/11/17 09:57:53;;;;;;;0.47;0.20;;;;;;;;;;4101903;28;20061;-38
2022/11/17 10:00:15;;;;;;;0.10;0.10;;;;;;;;;;4084323;28;20057;-43
2022/11/17 10:02:16;;;;;;;1.70;0.20;;;;;;;;;;4076830;28;20337;-40
2022/11/17 10:04:18;;;;;;;1.90;0.20;;;;;;;;;;4093198;28;20106;-39
2022/11/17 10:06:22;;;;;;;1.73;0.20;;;;;;;;;;4081840;28;20058;-40
2022/11/17 10:08:33;;;;;;;0.40;0.20;;;;;;;;;;4099202;28;20630;-38
2022/11/17 10:10:49;;;;;;;1.15;0.30;;;;;;;;;;4087395;28;20050;-39
2022/11/17 10:12:55;;;;;;;0.63;0.25;;;;;;;;;;4060933;28;20264;-40
2022/11/17 10:14:57;;;;;;;0.30;0.10;;;;;;;;;;4100043;28;20057;-40
2022/11/17 10:16:58;;;;;;;0.52;0.20;;;;;;;;;;4112226;28;20147;-40
2022/11/17 10:19:28;;;;;;;2.05;0.30;;;;;;;;;;4098362;28;20701;-40
2022/11/17 10:21:29;;;;;;;0.20;0.13;;;;;;;;;;4101190;28;20551;-40
2022/11/17 10:23:35;;;;;;;0.47;0.17;;;;;;;;;;4105792;28;21558;-42
2022/11/17 10:25:39;;;;;;;0.20;0.20;;;;;;;;;;4087706;28;20057;-40
2022/11/17 10:27:50;;;;;;;0.10;0.10;;;;;;;;;;4108872;28;20100;-40
2022/11/17 10:30:08;;;;;;;0.82;0.22;;;;;;;;;;4102013;28;20311;-40
2022/11/17 10:32:13;;;;;;;0.57;0.25;;;;;;;;;;4090376;28;20057;-41
2022/11/17 10:34:30;;;;;;;1.55;0.25;;;;;;;;;;4092289;28;20058;-40
2022/11/17 10:36:32;;;;;;;0.43;0.20;;;;;;;;;;4107405;28;20057;-40
2022/11/17 10:38:34;;;;;;;0.43;0.30;;;;;;;;;;4097490;28;20054;-39
2022/11/17 10:40:38;;;;;;;1.75;0.25;;;;;;;;;;4106835;28;20058;-40
2022/11/17 10:42:42;;;;;;;3.17;0.20;;;;;;;;;;4102271;28;20513;-39
2022/11/17 10:44:50;;;;;;;0.75;0.30;;;;;;;;;;4111415;28;20292;-40
2022/11/17 10:47:03;;;;;;;1.10;0.20;;;;;;;;;;4110293;28;20077;-39
2022/11/17 10:49:23;;;;;;;2.95;0.20;;;;;;;;;;4090518;28;20160;-40
2022/11/17 10:51:26;;;;;;;2.38;0.40;;;;;;;;;;4109198;28;20065;-40
2022/11/17 10:53:32;;;;;;;0.57;0.10;;;;;;;;;;4115306;28;20108;-39
2022/11/17 10:55:40;;;;;;;0.43;0.20;;;;;;;;;;4093823;28;20446;-41
2022/11/17 10:57:43;;;;;;;0.50;0.10;;;;;;;;;;4102755;28;20054;-39
2022/11/17 10:59:48;;;;;;;1.77;0.20;;;;;;;;;;4115536;28;20103;-40
2022/11/17 11:01:50;;;;;;;0.30;0.10;;;;;;;;;;4104297;28;20450;-41
2022/11/17 11:03:51;;;;;;;0.20;0.20;;;;;;;;;;4112022;28;20068;-39
2022/11/17 11:06:05;;;;;;;0.30;0.20;;;;;;;;;;4092969;28;20081;-40
2022/11/17 11:08:18;;;;;;;0.93;0.15;;;;;;;;;;4084218;28;20058;-39
2022/11/17 11:10:31;;;;;;;0.50;0.20;;;;;;;;;;4101765;28;20104;-40
2022/11/17 11:12:40;;;;;;;0.30;0.10;;;;;;;;;;4106955;28;20068;-40
2022/11/17 11:14:47;;;;;;;3.10;0.30;;;;;;;;;;4121164;28;20074;-40
2022/11/17 11:16:49;;;;;;;0.43;0.25;;;;;;;;;;4120648;28;20096;-39
2022/11/17 11:18:52;;;;;;;0.55;0.40;;;;;;;;;;4115920;28;21083;-40
2022/11/17 11:21:12;;;;;;;0.60;0.38;;;;;;;;;;4121259;28;20068;-39
2022/11/17 11:23:24;;;;;;;;;;;;;;;;;;4120468;28;20057;-39
2022/11/17 11:25:44;;;;;;;1.80;0.40;;;;;;;;;;4123687;28;19963;-39
2022/11/17 11:28:21;;;;;;;1.50;0.40;;;;;;;;;;4120294;28;20129;-40
2022/11/17 11:30:23;;;;;;;1.10;0.30;;;;;;;;;;4088742;28;20101;-42
2022/11/17 11:32:34;;;;;;;0.57;0.30;;;;;;;;;;4102201;28;20050;-39
2022/11/17 11:34:42;;;;;;;0.60;0.40;;;;;;;;;;4099529;28;20508;-41
2022/11/17 11:36:53;;;;;;;0.57;0.40;;;;;;;;;;4121262;28;20440;-41
2022/11/17 11:39:00;;;;;;;0.77;0.30;;;;;;;;;;4114083;28;20061;-43
2022/11/17 11:41:02;;;;;;;2.20;0.40;;;;;;;;;;4121283;28;20165;-40
2022/11/17 11:43:27;;;;;;;0.88;0.30;;;;;;;;;;4116978;28;20113;-41
2022/11/17 11:46:01;;;;;;;1.13;0.30;;;;;;;;;;4122119;28;20104;-41
2022/11/17 11:48:30;;;;;;;1.23;0.40;;;;;;;;;;4096070;28;20697;-40
2022/11/17 11:50:41;;;;;;;0.28;0.10;;;;;;;;;;4100576;28;20054;-39
2022/11/17 11:52:49;;;;;;;0.40;0.30;;;;;;;;;;4095473;28;20786;-41
2022/11/17 11:54:56;;;;;;;4.97;0.70;;;;;;;;;;4095219;28;20104;-42
2022/11/17 11:56:57;;;;;;;0.52;0.32;;;;;;;;;;4105949;28;20061;-39
2022/11/17 11:58:59;;;;;;;1.20;0.30;;;;;;;;;;4099101;28;20054;-41
2022/11/17 12:01:06;;;;;;;0.63;0.43;;;;;;;;;;4124669;28;20057;-42
2022/11/17 12:03:26;;;;;;;0.65;0.38;;;;;;;;;;4086958;28;20121;-42
2022/11/17 12:05:38;;;;;;;1.80;0.30;;;;;;;;;;4104761;28;21439;-41
2022/11/17 12:07:48;;;;;;;1.30;0.43;;;;;;;;;;4098670;28;21521;-41
2022/11/17 12:10:04;;;;;;;1.40;0.65;;;;;;;;;;4104618;28;20060;-41
2022/11/17 12:12:14;;;;;;;1.08;0.40;;;;;;;;;;4093083;28;20058;-42
2022/11/17 12:14:17;;;;;;;0.70;0.40;;;;;;;;;;4112141;28;20115;-44
2022/11/17 12:16:26;;;;;;;0.95;0.30;;;;;;;;;;4098140;28;20069;-41
2022/11/17 12:18:30;;;;;;;0.28;0.28;;;;;;;;;;4071025;28;20054;-41
2022/11/17 12:20:37;;;;;;;1.02;0.30;;;;;;;;;;4099550;28;20774;-42
2022/11/17 12:22:46;;;;;;;0.30;0.20;;;;;;;;;;4084106;28;20682;-42
2022/11/17 12:24:55;;;;;;;0.82;0.40;;;;;;;;;;4096243;28;20066;-42
2022/11/17 12:27:34;;;;;;;1.20;0.28;;;;;;;;;;4099882;28;20077;-40
2022/11/17 12:29:44;;;;;;;;;;;;;;;;;;4102761;28;20058;-41
2022/11/17 12:31:47;;;;;;;2.75;0.40;;;;;;;;;;4096913;28;19936;-40
2022/11/17 12:33:51;;;;;;;0.82;0.30;;;;;;;;;;4095378;28;20058;-40
2022/11/17 12:36:22;;;;;;;1.17;0.47;;;;;;;;;;4091725;28;20571;-41
2022/11/17 12:38:29;;;;;;;0.95;0.25;;;;;;;;;;4103922;28;20615;-40
2022/11/17 12:40:37;;;;;;;1.42;0.55;;;;;;;;;;4106768;28;20136;-42
2022/11/17 12:43:16;;;;;;;0.88;0.30;;;;;;;;;;4121390;28;20107;-40
2022/11/17 12:45:18;;;;;;;3.58;0.43;;;;;;;;;;4101651;28;20058;-40
2022/11/17 12:47:21;;;;;;;0.55;0.22;;;;;;;;;;4086815;28;20051;-41
2022/11/17 12:49:32;;;;;;;1.15;0.30;;;;;;;;;;4106240;28;20110;-42
2022/11/17 12:51:51;;;;;;;0.30;0.20;;;;;;;;;;4102085;28;21037;-41
2022/11/17 12:54:20;;;;;;;0.95;0.63;;;;;;;;;;4084750;28;21134;-41
2022/11/17 12:56:40;;;;;;;0.93;0.20;;;;;;;;;;4094012;28;20076;-41
2022/11/17 12:59:41;;;;;;;0.70;0.50;;;;;;;;;;4098238;28;20117;-41
2022/11/17 13:02:04;;;;;;;0.47;0.20;;;;;;;;;;4051021;28;20921;-39
2022/11/17 13:04:13;;;;;;;2.88;0.30;;;;;;;;;;4089790;28;20054;-41
2022/11/17 13:06:15;;;;;;;0.85;0.40;;;;;;;;;;4085384;28;20058;-40
2022/11/17 13:08:22;;;;;;;1.05;0.30;;;;;;;;;;4092318;28;20386;-40
2022/11/17 13:10:30;;;;;;;0.28;0.17;;;;;;;;;;4107797;28;20226;-40
2022/11/17 13:12:32;;;;;;;0.80;0.30;;;;;;;;;;4105171;28;20062;-40
2022/11/17 13:14:35;;;;;;;1.48;0.30;;;;;;;;;;4099283;28;20058;-40